createdAt,value
2023-02-16T00:01:18.095Z,78620.59
2023-02-16T00:03:45.933Z,78620.59
2023-02-16T00:06:16.037Z,78620.59
2023-02-16T00:08:45.552Z,78620.59
2023-02-16T00:11:39.273Z,78604.38
2023-02-16T00:14:10.262Z,78600.31
2023-02-16T00:16:38.578Z,78598.28
2023-02-16T00:19:46.043Z,78596.25
2023-02-16T00:22:13.028Z,78584.09
2023-02-16T00:24:40.737Z,78584.09
2023-02-16T00:27:16.246Z,78567.84
2023-02-16T00:29:45.830Z,78571.91
2023-02-16T00:32:13.755Z,78563.81
2023-02-16T00:34:42.192Z,78559.75
2023-02-16T00:37:12.066Z,78557.72
2023-02-16T00:39:41.938Z,78543.53
2023-02-16T00:42:15.204Z,78543.53
2023-02-16T00:44:45.650Z,78541.50
2023-02-16T00:47:35.516Z,78535.41
2023-02-16T00:50:07.488Z,78531.34
2023-02-16T00:52:42.737Z,78527.28
2023-02-16T00:55:13.412Z,78531.34
2023-02-16T00:57:45.881Z,78527.28
2023-02-16T01:00:15.571Z,78529.31
2023-02-16T01:02:47.766Z,78527.28
2023-02-16T01:05:15.925Z,78525.25
2023-02-16T01:08:01.572Z,78527.28
2023-02-16T01:10:48.080Z,78525.25
2023-02-16T01:13:15.869Z,78531.34
2023-02-16T01:15:44.488Z,78539.47
2023-02-16T01:18:17.917Z,78539.47
2023-02-16T01:20:46.446Z,78545.53
2023-02-16T01:23:13.568Z,78543.53
2023-02-16T01:25:42.346Z,78547.56
2023-02-16T01:28:22.926Z,78551.63
2023-02-16T01:30:51.819Z,78555.69
2023-02-16T01:33:19.923Z,78551.63
2023-02-16T01:35:47.531Z,78543.53
2023-02-16T01:38:19.071Z,78543.53
2023-02-16T01:41:22.532Z,78547.56
2023-02-16T01:44:01.615Z,78549.59
2023-02-16T01:46:38.794Z,78547.56
2023-02-16T01:49:05.769Z,78555.69
2023-02-16T01:51:48.859Z,78549.59
2023-02-16T01:54:44.398Z,78555.69
2023-02-16T01:57:23.813Z,78543.53
2023-02-16T01:59:55.907Z,78551.63
2023-02-16T02:02:33.838Z,78539.47
2023-02-16T02:05:27.490Z,78541.50
2023-02-16T02:07:58.342Z,78543.53
2023-02-16T02:10:54.304Z,78545.53
2023-02-16T02:13:37.518Z,78535.41
2023-02-16T02:16:05.484Z,78531.34
2023-02-16T02:18:33.861Z,78547.56
2023-02-16T02:21:39.744Z,78543.53
2023-02-16T02:24:46.655Z,78535.41
2023-02-16T02:27:31.342Z,78529.31
2023-02-16T02:30:16.818Z,78527.28
2023-02-16T02:32:55.302Z,78527.28
2023-02-16T02:35:45.150Z,78531.34
2023-02-16T02:38:37.564Z,78523.25
2023-02-16T02:41:45.558Z,78523.25
2023-02-16T02:44:17.861Z,78523.25
2023-02-16T02:46:45.279Z,78515.13
2023-02-16T02:49:13.484Z,78519.19
2023-02-16T02:51:43.300Z,78523.25
2023-02-16T02:54:52.241Z,78519.19
2023-02-16T02:57:53.817Z,78513.09
2023-02-16T03:00:42.049Z,78511.06
2023-02-16T03:03:27.714Z,78511.06
2023-02-16T03:05:57.388Z,78521.22
2023-02-16T03:08:28.832Z,78507.00
2023-02-16T03:11:32.173Z,78511.06
2023-02-16T03:14:08.066Z,78498.91
2023-02-16T03:16:42.716Z,78507.00
2023-02-16T03:19:32.281Z,78502.94
2023-02-16T03:22:19.660Z,78507.00
2023-02-16T03:25:06.474Z,78482.66
2023-02-16T03:28:00.449Z,78494.84
2023-02-16T03:30:29.096Z,78490.78
2023-02-16T03:32:56.464Z,78498.91
2023-02-16T03:35:24.792Z,78494.84
2023-02-16T03:37:52.165Z,78494.84
2023-02-16T03:40:29.599Z,78494.84
2023-02-16T03:43:06.233Z,78496.88
2023-02-16T03:45:36.363Z,78494.84
2023-02-16T03:48:03.990Z,78490.78
2023-02-16T03:50:31.347Z,78486.72
2023-02-16T03:53:07.501Z,78490.78
2023-02-16T03:55:53.801Z,78486.72
2023-02-16T03:58:23.694Z,78478.63
2023-02-16T04:00:52.323Z,78466.44
2023-02-16T04:03:19.378Z,78462.38
2023-02-16T04:05:47.374Z,78470.50
2023-02-16T04:08:14.298Z,78470.50
2023-02-16T04:10:41.788Z,78478.63
2023-02-16T04:13:09.250Z,78462.38
2023-02-16T04:15:36.664Z,78454.28
2023-02-16T04:18:03.914Z,78458.34
2023-02-16T04:20:34.805Z,78462.38
2023-02-16T04:23:03.216Z,78454.28
2023-02-16T04:25:30.463Z,78446.16
2023-02-16T04:27:57.416Z,78450.22
2023-02-16T04:30:27.444Z,78458.34
2023-02-16T04:32:55.224Z,78454.28
2023-02-16T04:35:22.657Z,78466.44
2023-02-16T04:37:49.675Z,78464.41
2023-02-16T04:40:18.078Z,78466.44
2023-02-16T04:42:46.002Z,78470.50
2023-02-16T04:45:14.183Z,78470.50
2023-02-16T04:47:41.447Z,78478.63
2023-02-16T04:50:10.344Z,78482.66
2023-02-16T04:52:38.189Z,78482.66
2023-02-16T04:55:07.363Z,78490.78
2023-02-16T04:57:34.461Z,78482.66
2023-02-16T05:00:01.780Z,78490.78
2023-02-16T05:02:28.771Z,78498.91
2023-02-16T05:04:56.287Z,78492.81
2023-02-16T05:07:23.304Z,78492.81
2023-02-16T05:09:51.651Z,78490.78
2023-02-16T05:12:37.196Z,78498.91
2023-02-16T05:15:05.761Z,78490.78
2023-02-16T05:17:32.730Z,78502.94
2023-02-16T05:20:01.788Z,78498.91
2023-02-16T05:22:28.984Z,78504.97
2023-02-16T05:24:56.157Z,78494.84
2023-02-16T05:27:25.964Z,78498.91
2023-02-16T05:29:53.558Z,78490.78
2023-02-16T05:32:21.253Z,78502.94
2023-02-16T05:34:48.559Z,78502.94
2023-02-16T05:37:17.383Z,78502.94
2023-02-16T05:39:45.437Z,78511.06
2023-02-16T05:42:12.371Z,78504.97
2023-02-16T05:44:39.871Z,78496.88
2023-02-16T05:47:07.537Z,78502.94
2023-02-16T05:49:34.976Z,78498.91
2023-02-16T05:52:02.278Z,78494.84
2023-02-16T05:54:29.788Z,78511.06
2023-02-16T05:56:56.758Z,78498.91
2023-02-16T05:59:24.098Z,78498.91
2023-02-16T06:01:52.385Z,78494.84
2023-02-16T06:04:21.539Z,78486.72
2023-02-16T06:06:48.731Z,78486.72
2023-02-16T06:09:16.163Z,78478.63
2023-02-16T06:11:43.606Z,78482.66
2023-02-16T06:14:14.090Z,78474.56
2023-02-16T06:16:43.367Z,78480.66
2023-02-16T06:19:11.578Z,78480.66
2023-02-16T06:21:39.797Z,78476.59
2023-02-16T06:24:09.654Z,78462.38
2023-02-16T06:26:37.205Z,78452.25
2023-02-16T06:29:05.221Z,78434.00
2023-02-16T06:31:35.078Z,78442.09
2023-02-16T06:34:04.209Z,78434.00
2023-02-16T06:36:31.660Z,78423.84
2023-02-16T06:38:58.960Z,78417.78
2023-02-16T06:41:31.985Z,78405.59
2023-02-16T06:44:00.750Z,78397.50
2023-02-16T06:46:28.779Z,78393.44
2023-02-16T06:48:56.684Z,78393.44
2023-02-16T06:51:24.206Z,78393.44
2023-02-16T06:53:51.404Z,78383.28
2023-02-16T06:56:18.405Z,78373.16
2023-02-16T06:58:45.652Z,78365.03
2023-02-16T07:01:12.786Z,78356.94
2023-02-16T07:03:40.347Z,78348.81
2023-02-16T07:06:07.675Z,78344.75
2023-02-16T07:08:35.932Z,78340.69
2023-02-16T07:11:03.561Z,78328.53
2023-02-16T07:13:31.380Z,78312.31
2023-02-16T07:15:58.309Z,78300.13
2023-02-16T07:18:25.609Z,78283.91
2023-02-16T07:20:52.557Z,78271.75
2023-02-16T07:23:20.031Z,78259.56
2023-02-16T07:25:47.323Z,78247.41
2023-02-16T07:28:14.864Z,78237.28
2023-02-16T07:30:42.312Z,78227.13
2023-02-16T07:33:10.597Z,78210.91
2023-02-16T07:35:38.180Z,78206.84
2023-02-16T07:38:06.144Z,78178.44
2023-02-16T07:40:33.710Z,78174.41
2023-02-16T07:43:02.700Z,78170.34
2023-02-16T07:45:30.295Z,78154.13
2023-02-16T07:47:57.509Z,78146.00
2023-02-16T07:50:24.684Z,78141.94
2023-02-16T07:52:52.359Z,78135.88
2023-02-16T07:55:19.396Z,78129.78
2023-02-16T07:57:49.426Z,78121.66
2023-02-16T08:00:17.193Z,78113.56
2023-02-16T08:02:45.517Z,78097.34
2023-02-16T08:05:13.599Z,78081.09
2023-02-16T08:07:41.975Z,78081.09
2023-02-16T08:10:09.523Z,78064.88
2023-02-16T08:12:37.666Z,78048.66
2023-02-16T08:15:05.107Z,78048.66
2023-02-16T08:17:32.664Z,78048.66
2023-02-16T08:19:59.780Z,78048.66
2023-02-16T08:22:27.110Z,78032.44
2023-02-16T08:24:54.381Z,78014.19
2023-02-16T08:27:23.161Z,78014.19
2023-02-16T08:29:50.546Z,78016.22
2023-02-16T08:32:18.044Z,78012.16
2023-02-16T08:34:45.161Z,78008.09
2023-02-16T08:37:13.569Z,78000.00
2023-02-16T08:39:41.562Z,77983.75
2023-02-16T08:42:11.878Z,77971.59
2023-02-16T08:44:40.215Z,77963.50
2023-02-16T08:47:09.533Z,77947.25
2023-02-16T08:49:36.638Z,77945.25
2023-02-16T08:52:05.430Z,77935.09
2023-02-16T08:54:33.419Z,77935.09
2023-02-16T08:57:02.961Z,77918.88
2023-02-16T08:59:30.722Z,77908.72
2023-02-16T09:01:59.271Z,77902.66
2023-02-16T09:04:29.346Z,77890.47
2023-02-16T09:06:58.496Z,77890.47
2023-02-16T09:09:26.559Z,77886.44
2023-02-16T09:11:53.979Z,77874.25
2023-02-16T09:14:21.701Z,77853.97
2023-02-16T09:16:49.420Z,77841.81
2023-02-16T09:19:20.631Z,77845.88
2023-02-16T09:21:50.784Z,77841.81
2023-02-16T09:24:18.326Z,77819.50
2023-02-16T09:26:45.957Z,77813.44
2023-02-16T09:29:14.842Z,77805.31
2023-02-16T09:31:44.447Z,77780.97
2023-02-16T09:34:21.848Z,77789.09
2023-02-16T09:36:50.340Z,77776.94
2023-02-16T09:39:17.730Z,77780.97
2023-02-16T09:41:54.124Z,77776.94
2023-02-16T09:44:33.488Z,77776.94
2023-02-16T09:47:05.082Z,77768.81
2023-02-16T09:49:37.235Z,77766.78
2023-02-16T09:52:13.881Z,77748.53
2023-02-16T09:54:51.852Z,77748.53
2023-02-16T09:57:25.908Z,77744.47
2023-02-16T09:59:58.606Z,77736.38
2023-02-16T10:02:55.993Z,77716.09
2023-02-16T10:05:36.974Z,77710.00
2023-02-16T10:08:14.526Z,77712.03
2023-02-16T10:10:50.914Z,77697.84
2023-02-16T10:13:32.165Z,77695.81
2023-02-16T10:16:01.647Z,77677.56
2023-02-16T10:18:34.142Z,77659.31
2023-02-16T10:21:07.046Z,77647.16
2023-02-16T10:23:46.437Z,77663.38
2023-02-16T10:26:16.459Z,77659.31
2023-02-16T10:28:55.914Z,77667.44
2023-02-16T10:31:39.003Z,77675.53
2023-02-16T10:34:18.386Z,77679.59
2023-02-16T10:37:10.873Z,77667.44
2023-02-16T10:40:06.140Z,77663.38
2023-02-16T10:42:44.594Z,77639.03
2023-02-16T10:45:15.406Z,77626.88
2023-02-16T10:47:45.344Z,77614.69
2023-02-16T10:50:25.425Z,77582.25
2023-02-16T10:52:58.285Z,77566.03
2023-02-16T10:55:26.305Z,77547.78
2023-02-16T10:57:57.454Z,77545.75
2023-02-16T11:00:58.199Z,77521.44
2023-02-16T11:03:30.528Z,77509.25
2023-02-16T11:06:14.317Z,77501.16
2023-02-16T11:08:49.872Z,77478.84
2023-02-16T11:11:18.856Z,77464.66
2023-02-16T11:13:57.311Z,77456.53
2023-02-16T11:16:25.498Z,77444.38
2023-02-16T11:19:08.060Z,77436.28
2023-02-16T11:21:46.292Z,77420.06
2023-02-16T11:24:31.937Z,77399.78
2023-02-16T11:27:05.275Z,77387.59
2023-02-16T11:29:32.758Z,77371.38
2023-02-16T11:32:07.007Z,77371.38
2023-02-16T11:34:43.964Z,77365.31
2023-02-16T11:37:13.974Z,77355.16
2023-02-16T11:39:49.781Z,77363.28
2023-02-16T11:42:28.173Z,77367.34
2023-02-16T11:44:57.285Z,77351.13
2023-02-16T11:47:31.470Z,77340.97
2023-02-16T11:50:21.532Z,77330.84
2023-02-16T11:52:54.637Z,77320.69
2023-02-16T11:55:27.180Z,77316.66
2023-02-16T11:57:56.417Z,77306.50
2023-02-16T12:00:24.878Z,77286.22
2023-02-16T12:03:01.555Z,77298.41
2023-02-16T12:05:35.077Z,77302.44
2023-02-16T12:08:22.228Z,77300.44
2023-02-16T12:11:10.355Z,77294.34
2023-02-16T12:14:19.110Z,77278.13
2023-02-16T12:17:00.919Z,77274.06
2023-02-16T12:19:40.146Z,77270.00
2023-02-16T12:22:32.546Z,77253.78
2023-02-16T12:25:09.038Z,77253.78
2023-02-16T12:27:39.492Z,77253.78
2023-02-16T12:30:26.335Z,77253.78
2023-02-16T12:32:57.876Z,77245.69
2023-02-16T12:35:47.561Z,77229.47
2023-02-16T12:38:52.310Z,77233.53
2023-02-16T12:41:19.578Z,77241.63
2023-02-16T12:43:58.512Z,77225.41
2023-02-16T12:46:38.022Z,77221.34
2023-02-16T12:49:17.988Z,77241.63
2023-02-16T12:52:04.829Z,77237.56
2023-02-16T12:54:40.538Z,77229.47
2023-02-16T12:57:20.550Z,77235.53
2023-02-16T13:00:03.067Z,77245.69
2023-02-16T13:02:40.649Z,77241.63
2023-02-16T13:05:18.103Z,77241.63
2023-02-16T13:07:49.200Z,77233.53
2023-02-16T13:10:24.642Z,77225.41
2023-02-16T13:13:00.973Z,77253.78
2023-02-16T13:15:30.944Z,77261.91
2023-02-16T13:18:03.292Z,77267.97
2023-02-16T13:20:30.731Z,77253.78
2023-02-16T13:23:22.700Z,77245.69
2023-02-16T13:26:01.227Z,77217.28
2023-02-16T13:28:31.700Z,77233.53
2023-02-16T13:31:25.202Z,77233.53
2023-02-16T13:34:40.798Z,77213.25
2023-02-16T13:37:52.078Z,77223.38
2023-02-16T13:40:32.323Z,77225.41
2023-02-16T13:43:13.950Z,77213.25
2023-02-16T13:45:47.075Z,77211.22
2023-02-16T13:48:22.132Z,77215.28
2023-02-16T13:50:59.773Z,77209.19
2023-02-16T13:53:40.199Z,77211.22
2023-02-16T13:56:28.761Z,77203.09
2023-02-16T13:59:19.361Z,77207.16
2023-02-16T14:01:50.937Z,77213.25
2023-02-16T14:04:24.774Z,77223.38
2023-02-16T14:07:17.872Z,77229.47
2023-02-16T14:09:47.796Z,77235.53
2023-02-16T14:12:20.076Z,77239.59
2023-02-16T14:14:58.003Z,77239.59
2023-02-16T14:17:29.238Z,77245.69
2023-02-16T14:20:25.766Z,77253.78
2023-02-16T14:23:00.231Z,77261.91
2023-02-16T14:25:31.173Z,77270.00
2023-02-16T14:28:02.153Z,77270.00
2023-02-16T14:30:51.905Z,77274.06
2023-02-16T14:33:24.164Z,77278.13
2023-02-16T14:36:00.778Z,77300.44
2023-02-16T14:38:29.327Z,77302.44
2023-02-16T14:40:57.614Z,77292.31
2023-02-16T14:43:31.565Z,77298.41
2023-02-16T14:46:28.607Z,77302.44
2023-02-16T14:49:14.963Z,77302.44
2023-02-16T14:52:03.808Z,77306.50
2023-02-16T14:54:49.702Z,77314.63
2023-02-16T14:57:23.553Z,77322.72
2023-02-16T14:59:58.240Z,77330.84
2023-02-16T15:02:38.588Z,77330.84
2023-02-16T15:05:22.365Z,77322.72
2023-02-16T15:07:56.203Z,77322.72
2023-02-16T15:10:27.537Z,77343.00
2023-02-16T15:12:57.937Z,77345.03
2023-02-16T15:15:43.952Z,77340.97
2023-02-16T15:18:21.318Z,77347.06
2023-02-16T15:20:53.081Z,77349.09
2023-02-16T15:23:23.991Z,77359.22
2023-02-16T15:25:58.771Z,77369.38
2023-02-16T15:28:32.498Z,77375.44
2023-02-16T15:31:06.128Z,77379.50
2023-02-16T15:33:37.669Z,77399.78
2023-02-16T15:36:13.411Z,77407.88
2023-02-16T15:38:57.189Z,77409.91
2023-02-16T15:41:33.183Z,77411.94
2023-02-16T15:44:03.031Z,77416.00
2023-02-16T15:46:43.746Z,77420.06
2023-02-16T15:49:21.680Z,77424.09
2023-02-16T15:51:49.440Z,77409.91
2023-02-16T15:54:28.057Z,77420.06
2023-02-16T15:56:58.612Z,77428.16
2023-02-16T15:59:50.060Z,77448.44
2023-02-16T16:02:24.831Z,77448.44
2023-02-16T16:04:56.191Z,77458.56
2023-02-16T16:07:35.861Z,77452.50
2023-02-16T16:10:15.774Z,77472.78
2023-02-16T16:12:44.851Z,77468.72
2023-02-16T16:15:22.977Z,77466.69
2023-02-16T16:17:52.820Z,77476.81
2023-02-16T16:20:44.667Z,77476.81
2023-02-16T16:23:14.792Z,77493.03
2023-02-16T16:25:44.967Z,77505.22
2023-02-16T16:28:34.015Z,77501.16
2023-02-16T16:31:12.271Z,77499.13
2023-02-16T16:33:59.837Z,77505.22
2023-02-16T16:36:53.468Z,77509.25
2023-02-16T16:39:26.303Z,77501.16
2023-02-16T16:42:19.963Z,77484.94
2023-02-16T16:44:56.870Z,77501.16
2023-02-16T16:47:26.983Z,77497.09
2023-02-16T16:49:56.515Z,77505.22
2023-02-16T16:52:44.673Z,77501.16
2023-02-16T16:55:27.390Z,77509.25
2023-02-16T16:58:15.118Z,77509.25
2023-02-16T17:00:42.945Z,77509.25
2023-02-16T17:03:15.325Z,77517.38
2023-02-16T17:05:44.273Z,77517.38
2023-02-16T17:08:11.678Z,77517.38
2023-02-16T17:10:41.107Z,77527.50
2023-02-16T17:13:13.829Z,77529.53
2023-02-16T17:15:59.659Z,77521.44
2023-02-16T17:18:26.779Z,77523.47
2023-02-16T17:20:54.667Z,77529.53
2023-02-16T17:23:23.641Z,77537.66
2023-02-16T17:25:51.261Z,77533.59
2023-02-16T17:28:20.243Z,77529.53
2023-02-16T17:30:47.673Z,77535.63
2023-02-16T17:33:14.787Z,77541.72
2023-02-16T17:35:43.734Z,77541.72
2023-02-16T17:38:19.775Z,77537.66
2023-02-16T17:40:49.141Z,77537.66
2023-02-16T17:43:17.864Z,77553.88
2023-02-16T17:45:45.784Z,77561.97
2023-02-16T17:48:18.305Z,77559.97
2023-02-16T17:50:46.762Z,77564.00
2023-02-16T17:53:19.262Z,77584.28
2023-02-16T17:55:49.505Z,77586.31
2023-02-16T17:58:16.708Z,77586.31
2023-02-16T18:00:45.545Z,77594.44
2023-02-16T18:03:12.794Z,77594.44
2023-02-16T18:05:40.440Z,77590.38
2023-02-16T18:08:08.009Z,77602.53
2023-02-16T18:10:43.041Z,77598.47
2023-02-16T18:13:11.725Z,77602.53
2023-02-16T18:15:42.343Z,77598.47
2023-02-16T18:18:10.084Z,77598.47
2023-02-16T18:20:37.681Z,77602.53
2023-02-16T18:23:05.566Z,77598.47
2023-02-16T18:25:33.768Z,77606.59
2023-02-16T18:28:01.055Z,77604.56
2023-02-16T18:30:28.467Z,77596.44
2023-02-16T18:32:55.593Z,77602.53
2023-02-16T18:35:22.931Z,77606.59
2023-02-16T18:37:50.080Z,77602.53
2023-02-16T18:40:19.996Z,77594.44
2023-02-16T18:42:47.608Z,77594.44
2023-02-16T18:45:15.108Z,77598.47
2023-02-16T18:47:44.476Z,77602.53
2023-02-16T18:50:12.620Z,77602.53
2023-02-16T18:52:42.491Z,77602.53
2023-02-16T18:55:11.394Z,77606.59
2023-02-16T18:57:38.636Z,77614.69
2023-02-16T19:00:07.877Z,77614.69
2023-02-16T19:02:35.668Z,77614.69
2023-02-16T19:05:03.890Z,77618.75
2023-02-16T19:07:30.812Z,77614.69
2023-02-16T19:09:58.096Z,77622.81
2023-02-16T19:12:25.461Z,77626.88
2023-02-16T19:14:52.768Z,77626.88
2023-02-16T19:17:19.737Z,77626.88
2023-02-16T19:19:46.967Z,77614.69
2023-02-16T19:22:13.941Z,77612.69
2023-02-16T19:24:41.405Z,77608.63
2023-02-16T19:27:08.391Z,77586.31
2023-02-16T19:29:35.712Z,77598.47
2023-02-16T19:32:03.058Z,77602.53
2023-02-16T19:34:30.368Z,77590.38
2023-02-16T19:36:57.324Z,77590.38
2023-02-16T19:39:24.493Z,77582.25
2023-02-16T19:41:51.650Z,77570.09
2023-02-16T19:44:18.980Z,77570.09
2023-02-16T19:46:45.919Z,77570.09
2023-02-16T19:49:15.127Z,77566.03
2023-02-16T19:51:42.949Z,77545.75
2023-02-16T19:54:10.256Z,77557.94
2023-02-16T19:56:40.482Z,77566.03
2023-02-16T19:59:08.720Z,77557.94
2023-02-16T20:01:36.400Z,77547.78
2023-02-16T20:04:04.048Z,77557.94
2023-02-16T20:06:34.421Z,77570.09
2023-02-16T20:09:01.708Z,77578.22
2023-02-16T20:11:29.521Z,77580.22
2023-02-16T20:13:57.686Z,77582.25
2023-02-16T20:16:26.326Z,77582.25
2023-02-16T20:18:56.890Z,77598.47
2023-02-16T20:21:26.567Z,77594.44
2023-02-16T20:23:57.631Z,77598.47
2023-02-16T20:26:34.643Z,77594.44
2023-02-16T20:29:04.063Z,77590.38
2023-02-16T20:31:38.317Z,77600.50
2023-02-16T20:34:06.687Z,77596.44
2023-02-16T20:36:35.457Z,77598.47
2023-02-16T20:39:04.467Z,77610.66
2023-02-16T20:41:31.826Z,77614.69
2023-02-16T20:43:59.100Z,77610.66
2023-02-16T20:46:26.321Z,77618.75
2023-02-16T20:48:54.036Z,77614.69
2023-02-16T20:51:21.503Z,77630.94
2023-02-16T20:53:49.269Z,77639.03
2023-02-16T20:56:22.852Z,77647.16
2023-02-16T20:58:52.369Z,77639.03
2023-02-16T21:01:29.829Z,77630.94
2023-02-16T21:03:58.740Z,77641.06
2023-02-16T21:06:26.266Z,77641.06
2023-02-16T21:08:53.630Z,77643.09
2023-02-16T21:11:21.358Z,77643.09
2023-02-16T21:13:49.072Z,77647.16
2023-02-16T21:16:16.473Z,77643.09
2023-02-16T21:18:44.569Z,77647.16
2023-02-16T21:21:15.633Z,77641.06
2023-02-16T21:23:43.708Z,77643.09
2023-02-16T21:26:11.843Z,77651.19
2023-02-16T21:28:39.558Z,77655.25
2023-02-16T21:31:13.890Z,77655.25
2023-02-16T21:33:42.659Z,77655.25
2023-02-16T21:36:12.605Z,77653.22
2023-02-16T21:38:40.925Z,77675.53
2023-02-16T21:41:25.449Z,77645.13
2023-02-16T21:43:59.315Z,77655.25
2023-02-16T21:46:28.167Z,77655.25
2023-02-16T21:48:57.356Z,77643.09
2023-02-16T21:51:32.113Z,77659.31
2023-02-16T21:54:00.201Z,77641.06
2023-02-16T21:56:45.518Z,77655.25
2023-02-16T21:59:14.639Z,77655.25
2023-02-16T22:01:47.863Z,77651.19
2023-02-16T22:04:19.122Z,77639.03
2023-02-16T22:06:48.847Z,77651.19
2023-02-16T22:09:18.979Z,77647.16
2023-02-16T22:11:46.786Z,77634.97
2023-02-16T22:14:14.349Z,77634.97
2023-02-16T22:16:43.906Z,77643.09
2023-02-16T22:19:13.190Z,77645.13
2023-02-16T22:21:42.218Z,77643.09
2023-02-16T22:24:14.170Z,77645.13
2023-02-16T22:26:41.353Z,77651.19
2023-02-16T22:29:09.414Z,77634.97
2023-02-16T22:31:37.461Z,77628.91
2023-02-16T22:34:13.548Z,77630.94
2023-02-16T22:36:40.905Z,77643.09
2023-02-16T22:39:08.447Z,77639.03
2023-02-16T22:41:35.988Z,77639.03
2023-02-16T22:44:03.371Z,77639.03
2023-02-16T22:46:30.677Z,77643.09
2023-02-16T22:48:59.047Z,77643.09
2023-02-16T22:51:29.322Z,77643.09
2023-02-16T22:54:01.081Z,77639.03
2023-02-16T22:56:28.443Z,77637.00
2023-02-16T22:58:57.791Z,77639.03
2023-02-16T23:01:26.624Z,77643.09
2023-02-16T23:03:58.787Z,77639.03
2023-02-16T23:06:37.011Z,77626.88
2023-02-16T23:09:08.905Z,77628.91
2023-02-16T23:11:36.455Z,77634.97
2023-02-16T23:14:04.626Z,77630.94
2023-02-16T23:16:31.700Z,77626.88
2023-02-16T23:19:00.179Z,77624.84
2023-02-16T23:21:32.805Z,77624.84
2023-02-16T23:24:00.640Z,77630.94
2023-02-16T23:26:29.661Z,77630.94
2023-02-16T23:29:01.488Z,77628.91
2023-02-16T23:31:33.103Z,77626.88
2023-02-16T23:34:02.471Z,77610.66
2023-02-16T23:36:31.087Z,77616.72
2023-02-16T23:39:12.141Z,77616.72
2023-02-16T23:41:40.144Z,77616.72
2023-02-16T23:44:08.137Z,77618.75
2023-02-16T23:46:35.063Z,77608.63
2023-02-16T23:49:02.791Z,77612.69
2023-02-16T23:51:29.750Z,77618.75
2023-02-16T23:53:57.013Z,77610.66
2023-02-16T23:56:28.630Z,77614.69
2023-02-16T23:58:59.254Z,77612.69
